sensor_id;sensor_type;location;lat;lon;timestamp;P1;durP1;ratioP1;P2;durP2;ratioP2
36303;SDS011;22335;49.800;8.596;2023-11-21T00:02:13;16.60;;;13.45;;
36303;SDS011;22335;49.800;8.596;2023-11-21T00:08:57;14.80;;;13.40;;
36303;SDS011;22335;49.800;8.596;2023-11-21T00:15:41;15.43;;;13.90;;
36303;SDS011;22335;49.800;8.596;2023-11-21T00:22:26;15.15;;;13.57;;
36303;SDS011;22335;49.800;8.596;2023-11-21T00:29:12;19.73;;;13.98;;
36303;SDS011;22335;49.800;8.596;2023-11-21T00:35:58;14.48;;;13.25;;
36303;SDS011;22335;49.800;8.596;2023-11-21T00:42:44;16.15;;;14.57;;
36303;SDS011;22335;49.800;8.596;2023-11-21T00:49:28;17.33;;;14.40;;
36303;SDS011;22335;49.800;8.596;2023-11-21T00:56:13;16.20;;;14.70;;
36303;SDS011;22335;49.800;8.596;2023-11-21T01:03:03;16.17;;;14.48;;
36303;SDS011;22335;49.800;8.596;2023-11-21T01:16:33;16.80;;;15.00;;
36303;SDS011;22335;49.800;8.596;2023-11-21T01:23:19;16.85;;;15.30;;
36303;SDS011;22335;49.800;8.596;2023-11-21T01:30:04;17.10;;;15.32;;
36303;SDS011;22335;49.800;8.596;2023-11-21T01:36:49;19.42;;;15.60;;
36303;SDS011;22335;49.800;8.596;2023-11-21T01:43:35;17.00;;;14.95;;
36303;SDS011;22335;49.800;8.596;2023-11-21T01:50:19;18.08;;;14.77;;
36303;SDS011;22335;49.800;8.596;2023-11-21T01:57:04;18.88;;;15.00;;
36303;SDS011;22335;49.800;8.596;2023-11-21T02:03:49;19.05;;;14.15;;
36303;SDS011;22335;49.800;8.596;2023-11-21T02:10:33;18.83;;;14.73;;
36303;SDS011;22335;49.800;8.596;2023-11-21T02:17:18;17.25;;;15.20;;
36303;SDS011;22335;49.800;8.596;2023-11-21T02:24:03;16.95;;;14.50;;
36303;SDS011;22335;49.800;8.596;2023-11-21T02:30:48;20.92;;;14.60;;
36303;SDS011;22335;49.800;8.596;2023-11-21T02:37:37;20.13;;;14.15;;
36303;SDS011;22335;49.800;8.596;2023-11-21T02:44:23;17.23;;;15.05;;
36303;SDS011;22335;49.800;8.596;2023-11-21T02:51:07;18.40;;;14.48;;
36303;SDS011;22335;49.800;8.596;2023-11-21T02:57:51;16.40;;;13.68;;
36303;SDS011;22335;49.800;8.596;2023-11-21T03:04:36;18.65;;;14.20;;
36303;SDS011;22335;49.800;8.596;2023-11-21T03:11:20;19.70;;;14.77;;
36303;SDS011;22335;49.800;8.596;2023-11-21T03:18:04;15.55;;;14.05;;
36303;SDS011;22335;49.800;8.596;2023-11-21T03:24:49;19.30;;;15.02;;
36303;SDS011;22335;49.800;8.596;2023-11-21T03:31:32;18.15;;;14.45;;
36303;SDS011;22335;49.800;8.596;2023-11-21T03:38:16;16.83;;;13.77;;
36303;SDS011;22335;49.800;8.596;2023-11-21T04:00:06;19.50;;;14.27;;
36303;SDS011;22335;49.800;8.596;2023-11-21T04:06:54;20.05;;;14.30;;
36303;SDS011;22335;49.800;8.596;2023-11-21T04:13:37;15.75;;;14.35;;
36303;SDS011;22335;49.800;8.596;2023-11-21T04:20:23;15.85;;;14.27;;
36303;SDS011;22335;49.800;8.596;2023-11-21T04:27:10;16.40;;;14.80;;
36303;SDS011;22335;49.800;8.596;2023-11-21T04:34:01;17.60;;;14.73;;
36303;SDS011;22335;49.800;8.596;2023-11-21T04:40:47;17.27;;;14.65;;
36303;SDS011;22335;49.800;8.596;2023-11-21T04:47:31;17.38;;;15.20;;
36303;SDS011;22335;49.800;8.596;2023-11-21T04:54:17;17.80;;;16.15;;
36303;SDS011;22335;49.800;8.596;2023-11-21T05:01:02;16.67;;;15.05;;
36303;SDS011;22335;49.800;8.596;2023-11-21T05:07:47;16.95;;;15.25;;
36303;SDS011;22335;49.800;8.596;2023-11-21T05:14:31;17.60;;;15.88;;
36303;SDS011;22335;49.800;8.596;2023-11-21T05:21:16;18.38;;;16.58;;
36303;SDS011;22335;49.800;8.596;2023-11-21T05:28:02;18.88;;;17.17;;
36303;SDS011;22335;49.800;8.596;2023-11-21T05:34:48;20.13;;;17.80;;
36303;SDS011;22335;49.800;8.596;2023-11-21T05:41:32;19.95;;;18.02;;
36303;SDS011;22335;49.800;8.596;2023-11-21T05:48:16;20.50;;;18.40;;
36303;SDS011;22335;49.800;8.596;2023-11-21T06:02:11;18.67;;;17.08;;
36303;SDS011;22335;49.800;8.596;2023-11-21T06:08:55;18.33;;;16.73;;
36303;SDS011;22335;49.800;8.596;2023-11-21T06:15:41;18.10;;;16.67;;
36303;SDS011;22335;49.800;8.596;2023-11-21T06:22:29;16.00;;;14.50;;
36303;SDS011;22335;49.800;8.596;2023-11-21T06:29:13;15.25;;;14.15;;
36303;SDS011;22335;49.800;8.596;2023-11-21T06:36:00;15.05;;;13.90;;
36303;SDS011;22335;49.800;8.596;2023-11-21T06:42:51;15.10;;;14.05;;
36303;SDS011;22335;49.800;8.596;2023-11-21T06:49:35;14.85;;;13.90;;
36303;SDS011;22335;49.800;8.596;2023-11-21T06:56:21;13.70;;;12.90;;
36303;SDS011;22335;49.800;8.596;2023-11-21T07:03:05;14.00;;;13.00;;
36303;SDS011;22335;49.800;8.596;2023-11-21T07:09:49;13.10;;;12.30;;
36303;SDS011;22335;49.800;8.596;2023-11-21T07:16:34;13.90;;;12.80;;
36303;SDS011;22335;49.800;8.596;2023-11-21T07:23:20;13.38;;;12.48;;
36303;SDS011;22335;49.800;8.596;2023-11-21T07:30:05;12.73;;;11.95;;
36303;SDS011;22335;49.800;8.596;2023-11-21T07:36:51;13.60;;;12.60;;
36303;SDS011;22335;49.800;8.596;2023-11-21T07:43:36;13.70;;;12.70;;
36303;SDS011;22335;49.800;8.596;2023-11-21T07:50:20;14.00;;;13.05;;
36303;SDS011;22335;49.800;8.596;2023-11-21T07:57:04;15.23;;;14.13;;
36303;SDS011;22335;49.800;8.596;2023-11-21T08:03:49;16.02;;;14.93;;
36303;SDS011;22335;49.800;8.596;2023-11-21T08:10:34;17.60;;;16.30;;
36303;SDS011;22335;49.800;8.596;2023-11-21T08:17:18;18.52;;;17.02;;
36303;SDS011;22335;49.800;8.596;2023-11-21T08:24:06;28.05;;;21.33;;
36303;SDS011;22335;49.800;8.596;2023-11-21T08:30:52;20.45;;;18.55;;
36303;SDS011;22335;49.800;8.596;2023-11-21T08:37:36;19.75;;;18.00;;
36303;SDS011;22335;49.800;8.596;2023-11-21T08:44:21;20.08;;;18.30;;
36303;SDS011;22335;49.800;8.596;2023-11-21T08:51:06;19.67;;;17.98;;
36303;SDS011;22335;49.800;8.596;2023-11-21T08:57:53;19.08;;;17.58;;
36303;SDS011;22335;49.800;8.596;2023-11-21T09:04:38;18.35;;;16.85;;
36303;SDS011;22335;49.800;8.596;2023-11-21T09:11:22;18.83;;;17.30;;
36303;SDS011;22335;49.800;8.596;2023-11-21T09:18:08;20.23;;;18.40;;
36303;SDS011;22335;49.800;8.596;2023-11-21T09:24:53;28.65;;;20.60;;
36303;SDS011;22335;49.800;8.596;2023-11-21T09:31:37;19.80;;;17.90;;
36303;SDS011;22335;49.800;8.596;2023-11-21T09:38:21;19.77;;;17.98;;
36303;SDS011;22335;49.800;8.596;2023-11-21T09:45:08;19.17;;;17.35;;
36303;SDS011;22335;49.800;8.596;2023-11-21T09:52:01;18.08;;;16.25;;
36303;SDS011;22335;49.800;8.596;2023-11-21T09:58:47;16.52;;;15.13;;
36303;SDS011;22335;49.800;8.596;2023-11-21T10:05:37;16.58;;;15.18;;
36303;SDS011;22335;49.800;8.596;2023-11-21T10:12:21;15.80;;;14.45;;
36303;SDS011;22335;49.800;8.596;2023-11-21T10:19:07;16.25;;;14.95;;
36303;SDS011;22335;49.800;8.596;2023-11-21T10:25:56;17.27;;;15.98;;
36303;SDS011;22335;49.800;8.596;2023-11-21T10:32:45;19.47;;;17.57;;
36303;SDS011;22335;49.800;8.596;2023-11-21T10:39:30;18.38;;;16.33;;
36303;SDS011;22335;49.800;8.596;2023-11-21T10:46:17;19.00;;;17.17;;
36303;SDS011;22335;49.800;8.596;2023-11-21T10:53:01;20.17;;;17.63;;
36303;SDS011;22335;49.800;8.596;2023-11-21T10:59:46;18.45;;;16.95;;
36303;SDS011;22335;49.800;8.596;2023-11-21T11:06:32;24.23;;;18.75;;
36303;SDS011;22335;49.800;8.596;2023-11-21T11:13:18;22.67;;;18.15;;
36303;SDS011;22335;49.800;8.596;2023-11-21T11:20:03;19.85;;;17.70;;
36303;SDS011;22335;49.800;8.596;2023-11-21T11:26:54;16.75;;;15.05;;
36303;SDS011;22335;49.800;8.596;2023-11-21T11:33:51;18.10;;;16.42;;
36303;SDS011;22335;49.800;8.596;2023-11-21T11:40:44;16.85;;;15.35;;
36303;SDS011;22335;49.800;8.596;2023-11-21T11:47:31;20.10;;;16.60;;
36303;SDS011;22335;49.800;8.596;2023-11-21T11:54:19;17.83;;;15.80;;
36303;SDS011;22335;49.800;8.596;2023-11-21T12:01:18;16.00;;;14.70;;
36303;SDS011;22335;49.800;8.596;2023-11-21T12:08:04;14.77;;;13.40;;
36303;SDS011;22335;49.800;8.596;2023-11-21T12:14:49;14.10;;;12.90;;
36303;SDS011;22335;49.800;8.596;2023-11-21T12:21:32;16.05;;;14.55;;
36303;SDS011;22335;49.800;8.596;2023-11-21T12:28:18;15.68;;;14.10;;
36303;SDS011;22335;49.800;8.596;2023-11-21T12:35:08;14.63;;;13.23;;
36303;SDS011;22335;49.800;8.596;2023-11-21T12:41:52;15.90;;;14.20;;
36303;SDS011;22335;49.800;8.596;2023-11-21T12:48:38;14.90;;;13.50;;
36303;SDS011;22335;49.800;8.596;2023-11-21T12:55:23;16.75;;;14.90;;
36303;SDS011;22335;49.800;8.596;2023-11-21T13:02:07;17.90;;;16.08;;
36303;SDS011;22335;49.800;8.596;2023-11-21T13:08:52;16.38;;;14.63;;
36303;SDS011;22335;49.800;8.596;2023-11-21T13:15:38;17.00;;;15.27;;
36303;SDS011;22335;49.800;8.596;2023-11-21T13:22:23;15.05;;;13.32;;
36303;SDS011;22335;49.800;8.596;2023-11-21T13:29:09;17.73;;;14.77;;
36303;SDS011;22335;49.800;8.596;2023-11-21T13:43:04;15.95;;;14.50;;
36303;SDS011;22335;49.800;8.596;2023-11-21T13:49:54;15.65;;;14.15;;
36303;SDS011;22335;49.800;8.596;2023-11-21T13:56:38;16.20;;;14.73;;
36303;SDS011;22335;49.800;8.596;2023-11-21T14:03:26;16.15;;;14.75;;
36303;SDS011;22335;49.800;8.596;2023-11-21T14:10:22;16.65;;;14.95;;
36303;SDS011;22335;49.800;8.596;2023-11-21T14:17:08;15.60;;;14.20;;
36303;SDS011;22335;49.800;8.596;2023-11-21T14:23:52;15.88;;;14.30;;
36303;SDS011;22335;49.800;8.596;2023-11-21T14:30:37;15.52;;;14.23;;
36303;SDS011;22335;49.800;8.596;2023-11-21T14:37:22;15.90;;;14.50;;
36303;SDS011;22335;49.800;8.596;2023-11-21T14:44:06;15.15;;;13.70;;
36303;SDS011;22335;49.800;8.596;2023-11-21T14:50:55;14.82;;;13.63;;
36303;SDS011;22335;49.800;8.596;2023-11-21T14:57:58;16.20;;;14.77;;
36303;SDS011;22335;49.800;8.596;2023-11-21T15:04:45;15.23;;;13.95;;
36303;SDS011;22335;49.800;8.596;2023-11-21T15:11:31;15.77;;;14.27;;
36303;SDS011;22335;49.800;8.596;2023-11-21T15:18:14;15.50;;;14.20;;
36303;SDS011;22335;49.800;8.596;2023-11-21T15:24:59;16.20;;;14.57;;
36303;SDS011;22335;49.800;8.596;2023-11-21T15:31:51;17.10;;;15.50;;
36303;SDS011;22335;49.800;8.596;2023-11-21T15:38:37;16.60;;;14.93;;
36303;SDS011;22335;49.800;8.596;2023-11-21T15:45:21;17.80;;;16.10;;
36303;SDS011;22335;49.800;8.596;2023-11-21T15:52:09;18.20;;;16.30;;
36303;SDS011;22335;49.800;8.596;2023-11-21T15:58:53;17.70;;;16.10;;
36303;SDS011;22335;49.800;8.596;2023-11-21T16:05:36;16.55;;;15.05;;
36303;SDS011;22335;49.800;8.596;2023-11-21T16:12:21;15.73;;;14.40;;
36303;SDS011;22335;49.800;8.596;2023-11-21T16:19:05;15.75;;;14.35;;
36303;SDS011;22335;49.800;8.596;2023-11-21T16:25:48;15.05;;;13.82;;
36303;SDS011;22335;49.800;8.596;2023-11-21T16:32:37;14.75;;;13.60;;
36303;SDS011;22335;49.800;8.596;2023-11-21T16:39:22;16.80;;;15.27;;
36303;SDS011;22335;49.800;8.596;2023-11-21T16:46:06;15.23;;;14.07;;
36303;SDS011;22335;49.800;8.596;2023-11-21T16:52:53;15.55;;;14.15;;
36303;SDS011;22335;49.800;8.596;2023-11-21T16:59:37;14.80;;;13.70;;
36303;SDS011;22335;49.800;8.596;2023-11-21T17:06:20;15.05;;;13.93;;
36303;SDS011;22335;49.800;8.596;2023-11-21T17:13:06;14.85;;;13.70;;
36303;SDS011;22335;49.800;8.596;2023-11-21T17:19:49;15.57;;;14.15;;
36303;SDS011;22335;49.800;8.596;2023-11-21T17:26:33;16.33;;;14.88;;
36303;SDS011;22335;49.800;8.596;2023-11-21T17:33:19;18.33;;;16.58;;
36303;SDS011;22335;49.800;8.596;2023-11-21T17:40:03;18.20;;;16.63;;
36303;SDS011;22335;49.800;8.596;2023-11-21T17:46:49;17.40;;;16.00;;
36303;SDS011;22335;49.800;8.596;2023-11-21T17:53:34;17.85;;;16.33;;
36303;SDS011;22335;49.800;8.596;2023-11-21T18:00:18;16.85;;;15.38;;
36303;SDS011;22335;49.800;8.596;2023-11-21T18:07:04;18.77;;;16.98;;
36303;SDS011;22335;49.800;8.596;2023-11-21T18:13:49;21.10;;;19.02;;
36303;SDS011;22335;49.800;8.596;2023-11-21T18:20:33;21.63;;;19.15;;
36303;SDS011;22335;49.800;8.596;2023-11-21T18:27:17;23.02;;;20.33;;
36303;SDS011;22335;49.800;8.596;2023-11-21T18:34:01;19.48;;;17.50;;
36303;SDS011;22335;49.800;8.596;2023-11-21T18:40:47;20.17;;;18.30;;
36303;SDS011;22335;49.800;8.596;2023-11-21T18:47:32;20.98;;;18.90;;
36303;SDS011;22335;49.800;8.596;2023-11-21T18:54:17;28.63;;;23.60;;
36303;SDS011;22335;49.800;8.596;2023-11-21T19:01:01;22.73;;;20.52;;
36303;SDS011;22335;49.800;8.596;2023-11-21T19:07:45;22.67;;;20.45;;
36303;SDS011;22335;49.800;8.596;2023-11-21T19:14:30;22.80;;;20.50;;
36303;SDS011;22335;49.800;8.596;2023-11-21T19:21:13;20.90;;;18.77;;
36303;SDS011;22335;49.800;8.596;2023-11-21T19:27:57;20.08;;;18.10;;
36303;SDS011;22335;49.800;8.596;2023-11-21T19:34:43;19.73;;;18.00;;
36303;SDS011;22335;49.800;8.596;2023-11-21T19:41:26;17.48;;;16.08;;
36303;SDS011;22335;49.800;8.596;2023-11-21T19:48:11;16.88;;;15.57;;
36303;SDS011;22335;49.800;8.596;2023-11-21T19:54:56;16.20;;;15.10;;
36303;SDS011;22335;49.800;8.596;2023-11-21T20:01:41;15.85;;;14.75;;
36303;SDS011;22335;49.800;8.596;2023-11-21T20:08:25;16.55;;;15.45;;
36303;SDS011;22335;49.800;8.596;2023-11-21T20:15:13;17.95;;;16.65;;
36303;SDS011;22335;49.800;8.596;2023-11-21T20:21:57;19.55;;;17.95;;
36303;SDS011;22335;49.800;8.596;2023-11-21T20:28:41;20.02;;;18.30;;
36303;SDS011;22335;49.800;8.596;2023-11-21T20:35:26;20.92;;;19.15;;
36303;SDS011;22335;49.800;8.596;2023-11-21T20:42:11;20.02;;;18.42;;
36303;SDS011;22335;49.800;8.596;2023-11-21T20:48:56;19.50;;;18.10;;
36303;SDS011;22335;49.800;8.596;2023-11-21T20:55:41;19.27;;;17.90;;
36303;SDS011;22335;49.800;8.596;2023-11-21T21:02:30;20.88;;;19.08;;
36303;SDS011;22335;49.800;8.596;2023-11-21T21:09:17;20.98;;;19.17;;
36303;SDS011;22335;49.800;8.596;2023-11-21T21:16:09;20.10;;;18.50;;
36303;SDS011;22335;49.800;8.596;2023-11-21T21:22:55;19.58;;;18.17;;
36303;SDS011;22335;49.800;8.596;2023-11-21T21:29:39;19.15;;;17.58;;
36303;SDS011;22335;49.800;8.596;2023-11-21T21:43:35;19.40;;;18.05;;
36303;SDS011;22335;49.800;8.596;2023-11-21T21:50:20;18.88;;;17.45;;
36303;SDS011;22335;49.800;8.596;2023-11-21T21:57:07;18.02;;;16.60;;
36303;SDS011;22335;49.800;8.596;2023-11-21T22:03:51;17.33;;;16.23;;
36303;SDS011;22335;49.800;8.596;2023-11-21T22:10:36;18.05;;;16.85;;
36303;SDS011;22335;49.800;8.596;2023-11-21T22:17:21;17.80;;;16.60;;
36303;SDS011;22335;49.800;8.596;2023-11-21T22:24:06;18.88;;;17.50;;
36303;SDS011;22335;49.800;8.596;2023-11-21T22:30:50;18.92;;;17.63;;
36303;SDS011;22335;49.800;8.596;2023-11-21T22:37:36;18.13;;;16.88;;
36303;SDS011;22335;49.800;8.596;2023-11-21T22:44:20;18.05;;;16.85;;
36303;SDS011;22335;49.800;8.596;2023-11-21T22:51:04;17.75;;;16.65;;
36303;SDS011;22335;49.800;8.596;2023-11-21T22:57:49;18.63;;;17.42;;
36303;SDS011;22335;49.800;8.596;2023-11-21T23:04:33;19.20;;;17.95;;
36303;SDS011;22335;49.800;8.596;2023-11-21T23:11:17;18.20;;;17.10;;
36303;SDS011;22335;49.800;8.596;2023-11-21T23:18:04;17.77;;;16.67;;
36303;SDS011;22335;49.800;8.596;2023-11-21T23:24:50;18.35;;;17.00;;
36303;SDS011;22335;49.800;8.596;2023-11-21T23:31:39;18.58;;;17.38;;
36303;SDS011;22335;49.800;8.596;2023-11-21T23:38:24;19.92;;;18.63;;
36303;SDS011;22335;49.800;8.596;2023-11-21T23:45:08;18.55;;;17.30;;
36303;SDS011;22335;49.800;8.596;2023-11-21T23:51:52;19.60;;;18.40;;
36303;SDS011;22335;49.800;8.596;2023-11-21T23:58:37;19.38;;;18.17;;
